Time;durP1;ratioP1;P1;durP2;ratioP2;P2;SDS_P1;SDS_P2;PMS_P1;PMS_P2;Temp;Humidity;BMP_temperature;BMP_pressure;BME280_temperature;BME280_humidity;BME280_pressure;Samples;Min_cycle;Max_cycle;Signal;HPM_P1;HPM_P2
2023/08/18 00:01:42;;;;;;;;;20.50;18.25;;;;;22.91;61.51;100855.94;5094316;27;60267;-75
2023/08/18 00:04:07;;;;;;;;;19.75;19.00;;;;;22.90;61.30;100860.44;5090798;27;53882;-76
2023/08/18 00:06:33;;;;;;;;;22.25;16.50;;;;;22.86;62.12;100851.00;5071968;27;45442;-75
2023/08/18 00:08:58;;;;;;;;;23.50;18.50;;;;;22.84;61.56;100846.72;5071282;27;61094;-75
2023/08/18 00:11:23;;;;;;;;;19.25;17.00;;;;;22.80;61.44;100843.44;5079781;27;54916;-75
2023/08/18 00:13:49;;;;;;;;;24.00;18.50;;;;;22.80;61.72;100846.09;5067908;27;64727;-76
2023/08/18 00:16:14;;;;;;;;;23.25;19.00;;;;;22.78;62.20;100842.72;5086913;27;66866;-76
2023/08/18 00:18:39;;;;;;;;;25.00;19.25;;;;;22.77;61.72;100842.81;5083387;27;46284;-76
2023/08/18 00:21:05;;;;;;;;;27.25;21.25;;;;;22.74;61.89;100831.44;5083572;27;45353;-76
2023/08/18 00:23:30;;;;;;;;;25.50;22.50;;;;;22.67;62.20;100835.53;5076274;27;45286;-75
2023/08/18 00:25:56;;;;;;;;;23.00;20.50;;;;;22.66;62.28;100838.31;5088587;27;55624;-76
2023/08/18 00:28:21;;;;;;;;;27.00;21.00;;;;;22.63;62.38;100843.88;5077611;27;73254;-75
2023/08/18 00:30:47;;;;;;;;;26.00;20.25;;;;;22.62;62.45;100843.03;5090300;27;69622;-75
2023/08/18 00:33:13;;;;;;;;;23.00;18.75;;;;;22.59;62.71;100840.59;5085929;27;45488;-75
2023/08/18 00:35:38;;;;;;;;;23.75;21.50;;;;;22.55;63.11;100836.47;5084123;27;65474;-76
2023/08/18 00:38:03;;;;;;;;;29.75;22.25;;;;;22.48;62.71;100827.22;5095095;27;54847;-76
2023/08/18 00:40:29;;;;;;;;;26.00;18.00;;;;;22.44;62.66;100833.78;5086746;27;45580;-76
2023/08/18 00:42:54;;;;;;;;;26.75;20.25;;;;;22.42;63.30;100827.72;5082489;27;45476;-75
2023/08/18 00:45:21;;;;;;;;;25.25;22.25;;;;;22.37;63.22;100828.88;5091506;27;45157;-75
2023/08/18 00:47:46;;;;;;;;;22.25;18.50;;;;;22.34;63.46;100829.09;5089785;27;45322;-76
2023/08/18 00:50:12;;;;;;;;;24.00;18.75;;;;;22.26;63.57;100831.50;5080681;27;52447;-76
2023/08/18 00:52:42;;;;;;;;;26.75;24.75;;;;;22.22;63.75;100830.00;5090796;27;45319;-76
2023/08/18 00:55:09;;;;;;;;;28.00;23.00;;;;;22.17;63.63;100833.03;5087212;27;61713;-75
2023/08/18 00:57:35;;;;;;;;;25.25;22.25;;;;;22.15;64.41;100826.09;5082245;27;45427;-76
2023/08/18 01:00:01;;;;;;;;;25.00;22.75;;;;;22.13;64.54;100823.56;5096221;27;45495;-75
2023/08/18 01:02:26;;;;;;;;;25.50;23.50;;;;;22.13;65.04;100820.91;5098874;27;45429;-75
2023/08/18 01:04:52;;;;;;;;;23.75;20.50;;;;;22.12;64.44;100821.00;5097324;27;63037;-75
2023/08/18 01:07:17;;;;;;;;;28.00;23.00;;;;;22.12;64.47;100832.50;5083165;27;70873;-75
2023/08/18 01:09:43;;;;;;;;;25.00;21.00;;;;;22.09;64.86;100831.88;5090409;27;59188;-76
2023/08/18 01:12:23;;;;;;;;;24.00;21.50;;;;;22.08;64.78;100827.50;5083810;27;45351;-75
2023/08/18 01:15:16;;;;;;;;;27.50;23.50;;;;;22.04;64.82;100818.88;5089224;27;45572;-76
2023/08/18 01:18:01;;;;;;;;;23.75;22.25;;;;;22.02;65.10;100827.97;5082296;27;46562;-76
2023/08/18 01:20:27;;;;;;;;;22.75;22.75;;;;;21.96;64.99;100830.13;5085123;27;45753;-76
2023/08/18 01:22:55;;;;;;;;;24.25;22.50;;;;;21.94;65.54;100826.72;5091708;27;45358;-75
2023/08/18 01:25:20;;;;;;;;;27.75;21.25;;;;;21.88;64.87;100821.00;5095677;27;45197;-76
2023/08/18 01:27:45;;;;;;;;;24.50;22.00;;;;;21.87;65.70;100814.81;5101851;27;45443;-76
2023/08/18 01:30:11;;;;;;;;;26.75;22.00;;;;;21.84;65.79;100815.03;5082060;27;67757;-76
2023/08/18 01:32:50;;;;;;;;;25.75;21.25;;;;;21.83;65.46;100810.66;5083833;27;45323;-77
2023/08/18 01:35:16;;;;;;;;;26.50;21.50;;;;;21.79;65.62;100804.72;5110893;27;44822;-76
2023/08/18 01:37:43;;;;;;;;;26.75;23.50;;;;;21.78;65.63;100812.84;5108904;27;69357;-76
2023/08/18 01:40:10;;;;;;;;;27.25;21.50;;;;;21.74;66.07;100809.53;5100485;27;45264;-76
2023/08/18 01:42:35;;;;;;;;;30.00;27.25;;;;;21.71;65.99;100804.44;5093137;27;45332;-76
2023/08/18 01:45:02;;;;;;;;;33.75;26.25;;;;;21.70;66.21;100810.72;5087555;27;49334;-75
2023/08/18 01:47:28;;;;;;;;;30.75;25.00;;;;;21.67;66.88;100810.09;5086122;27;46562;-75
2023/08/18 01:49:53;;;;;;;;;36.75;29.00;;;;;21.64;66.25;100803.19;5085452;27;59304;-75
2023/08/18 01:52:19;;;;;;;;;31.75;24.00;;;;;21.63;66.94;100805.94;5093321;27;45508;-75
2023/08/18 01:54:44;;;;;;;;;28.25;23.25;;;;;21.61;66.99;100806.06;5091596;27;67598;-75
2023/08/18 01:57:09;;;;;;;;;33.75;26.50;;;;;21.59;67.17;100803.50;5091800;27;66641;-77
2023/08/18 01:59:35;;;;;;;;;32.50;25.00;;;;;21.58;66.33;100800.94;5081749;27;66453;-77
2023/08/18 02:02:00;;;;;;;;;28.25;23.75;;;;;21.56;67.19;100806.38;5074645;27;61230;-76
2023/08/18 02:04:25;;;;;;;;;36.50;23.50;;;;;21.53;66.97;100795.09;5089142;27;67460;-74
2023/08/18 02:06:51;;;;;;;;;36.50;27.00;;;;;21.53;67.42;100800.44;5086858;27;64177;-75
2023/08/18 02:09:16;;;;;;;;;26.00;23.00;;;;;21.52;67.50;100791.59;5086707;27;45252;-75
2023/08/18 02:11:41;;;;;;;;;27.00;23.25;;;;;21.49;67.21;100786.47;5081068;27;61117;-75
2023/08/18 02:14:07;;;;;;;;;26.50;23.00;;;;;21.47;66.99;100793.72;5085367;27;59618;-75
2023/08/18 02:16:32;;;;;;;;;28.25;25.25;;;;;21.43;67.52;100787.75;5087247;27;46098;-75
2023/08/18 02:18:58;;;;;;;;;31.25;26.75;;;;;21.43;67.78;100792.22;5091637;27;67328;-75
2023/08/18 02:21:23;;;;;;;;;27.75;24.25;;;;;21.38;67.47;100789.88;5090739;27;45465;-75
2023/08/18 02:23:48;;;;;;;;;30.25;23.75;;;;;21.35;68.23;100786.59;5093911;27;72713;-76
2023/08/18 02:26:14;;;;;;;;;32.25;26.50;;;;;21.26;68.86;100781.94;5061604;27;70228;-75
2023/08/18 02:28:39;;;;;;;;;32.00;25.25;;;;;21.28;68.15;100791.50;5091512;27;45866;-74
2023/08/18 02:31:07;;;;;;;;;36.00;28.00;;;;;21.25;68.23;100799.72;5088016;27;45536;-75
2023/08/18 02:33:33;;;;;;;;;33.75;24.00;;;;;21.23;68.89;100798.97;5088420;27;45491;-75
2023/08/18 02:35:59;;;;;;;;;31.75;28.75;;;;;21.22;68.15;100803.44;5088238;27;46589;-75
2023/08/18 02:38:28;;;;;;;;;32.00;25.25;;;;;21.20;68.67;100796.53;5076602;27;45496;-75
2023/08/18 02:40:54;;;;;;;;;32.50;28.25;;;;;21.16;68.70;100784.38;5080653;27;45450;-75
2023/08/18 02:43:21;;;;;;;;;28.50;23.25;;;;;21.13;69.37;100782.81;5083777;27;45147;-75
2023/08/18 02:45:46;;;;;;;;;32.00;29.00;;;;;21.15;68.44;100790.69;5074957;27;46834;-75
2023/08/18 02:48:12;;;;;;;;;34.00;26.00;;;;;21.11;68.83;100776.75;5094260;27;45471;-76
2023/08/18 02:50:38;;;;;;;;;32.50;23.25;;;;;21.12;69.28;100780.25;5076268;27;45332;-74
2023/08/18 02:53:04;;;;;;;;;31.25;25.25;;;;;21.08;70.24;100778.78;5089483;27;45542;-76
2023/08/18 02:55:29;;;;;;;;;29.25;23.00;;;;;21.10;69.30;100771.53;5083558;27;45390;-75
2023/08/18 02:57:54;;;;;;;;;34.00;26.75;;;;;21.10;69.12;100775.03;5086236;27;62957;-76
2023/08/18 03:00:20;;;;;;;;;38.25;30.25;;;;;21.08;69.70;100770.78;5075704;28;53427;-75
2023/08/18 03:02:46;;;;;;;;;33.25;26.25;;;;;21.05;69.10;100780.69;5085542;27;67975;-75
2023/08/18 03:05:12;;;;;;;;;29.50;24.00;;;;;21.01;70.03;100771.19;5068624;27;45491;-75
2023/08/18 03:07:37;;;;;;;;;30.75;27.00;;;;;21.03;69.63;100768.44;5081215;27;45288;-75
2023/08/18 03:10:02;;;;;;;;;36.50;27.75;;;;;21.02;70.33;100761.44;5080045;27;46062;-74
2023/08/18 03:12:28;;;;;;;;;32.75;26.50;;;;;21.03;69.55;100757.78;5083343;27;45575;-75
2023/08/18 03:14:54;;;;;;;;;31.25;25.25;;;;;21.00;69.94;100750.03;5087965;27;64933;-76
2023/08/18 03:17:19;;;;;;;;;36.00;29.75;;;;;21.00;69.75;100755.34;5069326;27;45352;-76
2023/08/18 03:19:45;;;;;;;;;35.00;28.75;;;;;20.96;70.37;100757.38;5072015;28;45807;-76
2023/08/18 03:22:11;;;;;;;;;30.00;25.00;;;;;20.88;70.38;100741.13;5080875;27;61874;-76
2023/08/18 03:24:36;;;;;;;;;35.00;28.00;;;;;20.92;70.99;100750.56;5084418;27;46354;-76
2023/08/18 03:27:02;;;;;;;;;36.00;29.75;;;;;20.95;70.39;100746.88;5083382;27;45342;-75
2023/08/18 03:29:27;;;;;;;;;34.75;26.00;;;;;20.95;70.66;100742.38;5088062;27;45367;-75
2023/08/18 03:31:52;;;;;;;;;35.75;28.25;;;;;20.96;70.34;100744.06;5085779;27;67963;-74
2023/08/18 03:34:18;;;;;;;;;29.25;24.25;;;;;20.97;70.18;100751.09;5079535;27;69675;-75
2023/08/18 03:36:43;;;;;;;;;37.75;30.25;;;;;20.99;69.90;100738.53;5085900;27;68495;-75
2023/08/18 03:39:08;;;;;;;;;28.00;24.25;;;;;20.94;70.91;100735.34;5088076;27;71128;-76
2023/08/18 03:41:34;;;;;;;;;28.50;23.75;;;;;21.00;71.17;100734.06;5091354;27;65590;-76
2023/08/18 03:43:59;;;;;;;;;36.25;30.00;;;;;21.02;70.36;100742.81;5088871;27;66967;-76
2023/08/18 03:46:25;;;;;;;;;32.75;28.50;;;;;21.04;70.39;100732.91;5084789;27;45441;-75
2023/08/18 03:48:51;;;;;;;;;29.75;24.25;;;;;21.07;70.36;100734.47;5085219;27;45304;-75
2023/08/18 03:51:16;;;;;;;;;31.00;26.25;;;;;21.08;70.81;100733.53;5078355;27;45287;-76
2023/08/18 03:53:42;;;;;;;;;35.00;29.50;;;;;21.09;70.62;100729.91;5081750;27;46804;-75
2023/08/18 03:56:07;;;;;;;;;31.00;25.00;;;;;21.12;71.18;100732.34;5079867;27;45404;-75
2023/08/18 03:58:33;;;;;;;;;33.75;28.25;;;;;21.15;70.24;100729.47;5085654;27;45445;-75
2023/08/18 04:01:03;;;;;;;;;37.75;27.00;;;;;21.14;69.95;100723.31;5092789;27;45465;-75
2023/08/18 04:03:28;;;;;;;;;38.75;30.00;;;;;21.16;70.51;100732.03;5093175;27;45526;-75
2023/08/18 04:05:53;;;;;;;;;33.25;28.00;;;;;21.15;70.28;100730.31;5095573;27;45927;-76
2023/08/18 04:08:19;;;;;;;;;33.25;27.00;;;;;21.13;70.45;100734.06;5088369;27;67994;-76
2023/08/18 04:10:44;;;;;;;;;32.25;28.75;;;;;21.07;70.11;100735.34;5087918;27;45412;-75
2023/08/18 04:13:10;;;;;;;;;31.50;28.00;;;;;21.02;70.88;100735.66;5090759;27;67943;-76
2023/08/18 04:15:35;;;;;;;;;34.00;28.25;;;;;21.03;70.77;100742.72;5076683;27;45494;-74
2023/08/18 04:18:00;;;;;;;;;36.50;29.50;;;;;21.02;70.88;100743.66;5090535;27;65302;-75
2023/08/18 04:20:26;;;;;;;;;32.00;28.50;;;;;21.02;70.81;100738.34;5093885;27;45481;-76
2023/08/18 04:22:51;;;;;;;;;31.00;27.75;;;;;21.03;71.21;100739.16;5078092;27;72820;-76
2023/08/18 04:25:16;;;;;;;;;35.50;29.75;;;;;21.03;71.04;100737.38;5089917;27;45264;-75
2023/08/18 04:27:42;;;;;;;;;30.00;24.00;;;;;21.04;70.91;100732.91;5070648;27;59634;-75
2023/08/18 04:30:08;;;;;;;;;36.25;29.00;;;;;21.02;70.56;100729.50;5090814;27;45538;-75
2023/08/18 04:32:33;;;;;;;;;36.00;29.00;;;;;21.01;70.43;100725.13;5089949;27;46809;-76
2023/08/18 04:35:01;;;;;;;;;35.00;28.50;;;;;20.95;70.97;100721.09;5090458;27;67310;-76
2023/08/18 04:37:26;;;;;;;;;36.50;28.50;;;;;20.96;71.01;100722.78;5095530;27;45523;-75
2023/08/18 04:39:52;;;;;;;;;38.00;26.75;;;;;20.94;70.71;100714.06;5090751;27;62973;-76
2023/08/18 04:42:17;;;;;;;;;31.50;25.25;;;;;20.95;71.25;100715.78;5090381;27;46250;-75
2023/08/18 04:44:42;;;;;;;;;29.00;28.00;;;;;20.91;71.19;100718.75;5095698;27;64703;-74
2023/08/18 04:47:08;;;;;;;;;35.00;28.25;;;;;20.94;71.09;100719.38;5083819;27;45684;-75
2023/08/18 04:49:33;;;;;;;;;28.25;26.00;;;;;20.94;71.09;100727.38;5101103;27;60787;-76
2023/08/18 04:51:58;;;;;;;;;32.25;28.00;;;;;20.94;71.77;100713.22;5097080;27;47482;-76
2023/08/18 04:54:24;;;;;;;;;27.25;22.25;;;;;20.97;71.10;100716.50;5089441;27;68590;-76
2023/08/18 04:56:56;;;;;;;;;35.75;29.25;;;;;20.98;71.98;100710.25;5096000;27;65611;-75
2023/08/18 04:59:21;;;;;;;;;35.25;27.50;;;;;21.01;71.09;100711.81;5089466;27;45463;-75
2023/08/18 05:01:47;;;;;;;;;31.00;27.25;;;;;21.02;71.97;100719.72;5100905;27;71656;-74
2023/08/18 05:04:12;;;;;;;;;40.00;29.00;;;;;21.04;72.18;100716.94;5102376;27;45388;-76
2023/08/18 05:06:38;;;;;;;;;35.75;29.75;;;;;21.07;72.15;100710.53;5094283;27;60349;-76
2023/08/18 05:09:05;;;;;;;;;38.50;29.75;;;;;21.11;71.86;100712.88;5100230;27;45533;-75
2023/08/18 05:11:30;;;;;;;;;28.75;26.25;;;;;21.10;71.59;100708.50;5097564;27;46085;-76
2023/08/18 05:13:56;;;;;;;;;30.00;27.00;;;;;21.15;71.54;100713.50;5094599;27;50483;-76
2023/08/18 05:16:21;;;;;;;;;33.25;25.75;;;;;21.17;71.67;100716.91;5092717;27;45279;-76
2023/08/18 05:18:47;;;;;;;;;35.50;29.50;;;;;21.17;71.71;100711.56;5082123;27;45707;-76
2023/08/18 05:21:12;;;;;;;;;31.75;30.50;;;;;21.22;71.63;100712.94;5090954;27;66186;-76
2023/08/18 05:23:38;;;;;;;;;33.25;28.75;;;;;21.22;71.42;100702.28;5098792;27;45433;-76
2023/08/18 05:26:03;;;;;;;;;33.75;28.00;;;;;21.29;70.90;100709.84;5097181;27;45378;-75
2023/08/18 05:28:29;;;;;;;;;32.25;23.50;;;;;21.29;71.42;100697.38;5094227;27;45385;-75
2023/08/18 05:30:55;;;;;;;;;37.50;25.25;;;;;21.32;70.79;100699.84;5090890;27;45283;-76
2023/08/18 05:33:20;;;;;;;;;38.50;28.75;;;;;21.34;70.82;100702.38;5081693;27;45347;-75
2023/08/18 05:35:47;;;;;;;;;38.75;30.00;;;;;21.34;70.69;100705.06;5096337;27;45306;-76
2023/08/18 05:38:12;;;;;;;;;33.25;26.00;;;;;21.33;70.61;100698.00;5087488;27;45258;-76
2023/08/18 05:40:46;;;;;;;;;35.75;28.25;;;;;21.32;71.33;100694.50;5096449;27;45505;-75
2023/08/18 05:43:12;;;;;;;;;30.00;24.75;;;;;21.35;71.69;100691.59;5093922;27;46208;-75
2023/08/18 05:45:38;;;;;;;;;32.50;28.75;;;;;21.41;70.59;100693.81;5071233;27;45370;-75
2023/08/18 05:48:04;;;;;;;;;32.75;25.75;;;;;21.40;71.32;100689.44;5097563;27;45417;-74
2023/08/18 05:50:30;;;;;;;;;33.25;26.50;;;;;21.49;71.22;100697.78;5090929;27;45411;-76
2023/08/18 05:52:55;;;;;;;;;32.00;27.00;;;;;21.52;70.81;100703.72;5077781;27;47193;-76
2023/08/18 05:55:22;;;;;;;;;38.50;28.75;;;;;21.56;70.81;100702.53;5093351;27;45493;-76
2023/08/18 05:57:48;;;;;;;;;33.00;28.25;;;;;21.59;70.68;100693.47;5094563;27;45349;-75
2023/08/18 06:00:14;;;;;;;;;32.25;28.75;;;;;21.64;71.37;100691.31;5083743;27;73426;-75
2023/08/18 06:02:40;;;;;;;;;22.75;22.75;;;;;21.67;70.52;100693.72;5084386;27;45852;-75
2023/08/18 06:05:05;;;;;;;;;34.50;27.50;;;;;21.73;70.80;100687.97;5091202;27;45445;-76
2023/08/18 06:07:32;;;;;;;;;37.00;28.75;;;;;21.78;70.83;100691.13;5087750;27;45259;-76
2023/08/18 06:09:57;;;;;;;;;35.50;29.00;;;;;21.84;70.55;100695.16;5086542;27;45287;-76
2023/08/18 06:12:22;;;;;;;;;31.50;25.00;;;;;21.90;70.84;100683.19;5080332;27;61793;-75
2023/08/18 06:14:48;;;;;;;;;31.00;26.00;;;;;22.03;70.92;100699.06;5082552;27;45430;-75
2023/08/18 06:17:13;;;;;;;;;34.75;27.00;;;;;22.13;70.69;100689.41;5090926;27;59651;-76
2023/08/18 06:19:38;;;;;;;;;31.75;27.00;;;;;22.24;69.90;100680.59;5090332;27;69294;-75
2023/08/18 06:22:04;;;;;;;;;31.75;27.25;;;;;22.31;69.67;100680.06;5092892;27;61108;-76
2023/08/18 06:24:29;;;;;;;;;32.00;28.75;;;;;22.37;69.32;100678.72;5076241;27;45315;-76
2023/08/18 06:26:55;;;;;;;;;36.50;29.25;;;;;22.41;69.79;100688.19;5090348;27;45407;-76
2023/08/18 06:29:20;;;;;;;;;28.50;26.00;;;;;22.40;69.18;100686.50;5087904;27;67361;-76
2023/08/18 06:31:45;;;;;;;;;32.00;25.00;;;;;22.42;69.30;100684.56;5099560;27;45432;-77
2023/08/18 06:34:11;;;;;;;;;29.50;25.50;;;;;22.48;69.84;100689.41;5091291;27;45488;-78
2023/08/18 06:36:36;;;;;;;;;32.50;27.00;;;;;22.55;69.41;100684.44;5086484;27;68180;-76
2023/08/18 06:39:02;;;;;;;;;27.25;25.25;;;;;22.65;69.46;100689.91;5080501;27;45352;-76
2023/08/18 06:41:27;;;;;;;;;36.25;28.50;;;;;22.70;69.12;100677.03;5091875;27;45525;-76
2023/08/18 06:43:52;;;;;;;;;37.00;29.00;;;;;22.77;68.83;100680.94;5093340;27;45418;-76
2023/08/18 06:46:18;;;;;;;;;33.00;26.50;;;;;22.83;68.46;100688.44;5094012;27;45343;-74
2023/08/18 06:48:43;;;;;;;;;30.25;25.75;;;;;22.85;68.34;100694.50;5085849;27;45931;-75
2023/08/18 06:51:08;;;;;;;;;27.75;25.75;;;;;22.86;68.41;100692.69;5094290;27;64751;-75
2023/08/18 06:53:34;;;;;;;;;30.00;25.50;;;;;22.88;68.75;100691.59;5074361;27;58727;-77
2023/08/18 06:56:00;;;;;;;;;29.00;24.25;;;;;22.92;68.22;100690.38;5096093;27;45249;-77
2023/08/18 06:58:26;;;;;;;;;34.50;27.75;;;;;23.01;68.55;100690.63;5087477;27;46525;-77
2023/08/18 07:00:52;;;;;;;;;33.00;28.25;;;;;23.06;68.41;100685.78;5086374;27;45322;-73
2023/08/18 07:03:17;;;;;;;;;28.25;25.25;;;;;23.13;68.39;100690.50;5076409;27;45319;-72
2023/08/18 07:05:42;;;;;;;;;33.75;24.50;;;;;23.20;67.83;100684.69;5087448;27;45290;-72
2023/08/18 07:08:08;;;;;;;;;28.75;26.00;;;;;23.28;67.54;100690.22;5095728;27;46881;-72
2023/08/18 07:10:34;;;;;;;;;26.00;24.25;;;;;23.35;67.74;100696.75;5096446;27;47386;-74
2023/08/18 07:12:59;;;;;;;;;36.50;26.75;;;;;23.42;67.48;100697.13;5089809;27;55037;-72
2023/08/18 07:15:24;;;;;;;;;33.25;27.00;;;;;23.45;67.31;100702.22;5080526;27;61055;-70
2023/08/18 07:17:50;;;;;;;;;34.25;26.25;;;;;23.48;67.40;100696.63;5081134;27;46629;-74
2023/08/18 07:20:15;;;;;;;;;27.00;26.25;;;;;23.53;67.22;100698.91;5087085;27;62836;-72
2023/08/18 07:22:41;;;;;;;;;28.25;26.50;;;;;23.58;67.05;100700.22;5089502;27;45516;-72
2023/08/18 07:25:07;;;;;;;;;30.25;25.75;;;;;23.65;67.31;100693.38;5086371;27;68578;-73
2023/08/18 07:27:32;;;;;;;;;24.50;22.25;;;;;23.74;67.08;100693.63;5078154;27;45530;-72
2023/08/18 07:29:57;;;;;;;;;36.50;29.00;;;;;23.79;66.93;100686.06;5091021;27;45317;-71
2023/08/18 07:32:23;;;;;;;;;32.75;28.00;;;;;23.86;66.85;100693.47;5099651;27;45436;-71
2023/08/18 07:34:48;;;;;;;;;32.50;25.00;;;;;23.93;66.53;100696.47;5088801;27;69867;-72
2023/08/18 07:37:13;;;;;;;;;27.00;25.00;;;;;23.97;66.27;100686.38;5085832;27;47972;-76
2023/08/18 07:39:39;;;;;;;;;27.00;24.25;;;;;24.05;66.12;100705.28;5086817;27;53439;-79
2023/08/18 07:42:05;;;;;;;;;33.00;26.00;;;;;24.09;65.98;100712.06;5092155;27;45579;-71
2023/08/18 07:44:30;;;;;;;;;30.25;24.25;;;;;24.10;65.89;100703.09;5077615;27;45555;-71
2023/08/18 07:46:55;;;;;;;;;29.50;24.00;;;;;24.13;65.86;100710.81;5099206;27;46265;-75
2023/08/18 07:49:21;;;;;;;;;31.25;28.00;;;;;24.19;65.54;100714.81;5094621;27;52914;-81
2023/08/18 07:51:46;;;;;;;;;30.75;24.00;;;;;24.23;66.03;100713.56;5079102;28;45970;-78
2023/08/18 07:54:12;;;;;;;;;39.00;30.75;;;;;24.24;65.61;100708.09;5091309;27;45432;-82
2023/08/18 07:56:37;;;;;;;;;32.75;27.50;;;;;24.27;65.57;100706.97;5085387;27;64628;-86
2023/08/18 07:59:03;;;;;;;;;30.75;25.00;;;;;24.34;65.38;100710.81;5083172;27;45307;-75
2023/08/18 08:01:29;;;;;;;;;23.75;22.50;;;;;24.39;65.40;100713.13;5080343;27;45438;-78
2023/08/18 08:03:55;;;;;;;;;28.50;25.00;;;;;24.45;65.32;100707.22;5092045;27;45372;-76
2023/08/18 08:06:21;;;;;;;;;35.50;29.00;;;;;24.53;65.12;100710.13;5079712;27;46094;-76
2023/08/18 08:08:46;;;;;;;;;28.00;22.25;;;;;24.59;64.70;100717.59;5086948;27;45504;-74
2023/08/18 08:11:12;;;;;;;;;29.75;24.75;;;;;24.62;64.86;100725.38;5081544;27;45467;-76
2023/08/18 08:13:38;;;;;;;;;30.50;24.00;;;;;24.68;65.09;100718.63;5089542;27;45498;-77
2023/08/18 08:16:03;;;;;;;;;26.75;23.00;;;;;24.73;64.68;100712.91;5093345;27;46028;-77
2023/08/18 08:18:28;;;;;;;;;35.25;27.50;;;;;24.79;64.79;100715.91;5081454;27;48398;-70
2023/08/18 08:20:54;;;;;;;;;27.75;25.00;;;;;24.83;64.41;100716.47;5087001;27;45374;-78
2023/08/18 08:23:19;;;;;;;;;27.00;23.50;;;;;24.83;64.66;100711.13;5090814;27;63764;-72
2023/08/18 08:25:47;;;;;;;;;27.25;24.50;;;;;24.91;64.91;100721.97;5095884;27;63301;-76
2023/08/18 08:28:12;;;;;;;;;27.25;24.00;;;;;24.95;64.78;100712.72;5098618;27;45692;-73
2023/08/18 08:30:41;;;;;;;;;30.00;24.50;;;;;24.99;64.58;100715.97;5089309;27;45334;-73
2023/08/18 08:33:08;;;;;;;;;23.00;21.25;;;;;25.07;64.66;100712.59;5089859;27;45704;-68
2023/08/18 08:35:34;;;;;;;;;25.25;23.00;;;;;25.07;64.27;100710.75;5077767;27;46330;-77
2023/08/18 08:37:59;;;;;;;;;25.50;23.00;;;;;25.13;64.38;100701.38;5079915;27;45209;-76
2023/08/18 08:40:25;;;;;;;;;26.75;22.00;;;;;25.24;64.44;100703.91;5069965;27;45321;-77
2023/08/18 08:42:53;;;;;;;;;24.50;21.00;;;;;25.27;64.29;100692.97;5093353;27;45504;-76
2023/08/18 08:45:20;;;;;;;;;31.25;23.25;;;;;25.41;63.96;100694.41;5078300;27;45246;-73
2023/08/18 08:47:46;;;;;;;;;26.75;22.50;;;;;25.48;64.13;100698.22;5095571;27;45497;-77
2023/08/18 08:50:13;;;;;;;;;27.00;25.25;;;;;25.65;63.33;100698.50;5086061;27;49868;-75
2023/08/18 08:52:39;;;;;;;;;31.25;24.00;;;;;25.81;63.14;100698.78;5093269;27;45557;-76
2023/08/18 08:55:06;;;;;;;;;30.75;22.00;;;;;25.92;63.37;100704.03;5091136;27;45445;-75
2023/08/18 08:57:31;;;;;;;;;26.25;20.00;;;;;26.03;62.72;100700.38;5091253;27;45270;-74
2023/08/18 08:59:57;;;;;;;;;25.25;20.75;;;;;26.14;62.74;100692.16;5090992;27;61865;-76
2023/08/18 09:02:22;;;;;;;;;22.50;16.75;;;;;26.20;62.75;100688.03;5082415;27;60977;-80
2023/08/18 09:04:47;;;;;;;;;23.00;20.00;;;;;26.28;62.58;100681.97;5090743;27;45416;-79
2023/08/18 09:07:14;;;;;;;;;22.50;17.75;;;;;26.34;62.61;100681.38;5088677;27;45244;-74
2023/08/18 09:09:40;;;;;;;;;24.25;22.25;;;;;26.38;62.08;100682.78;5087517;27;45757;-72
2023/08/18 09:12:07;;;;;;;;;30.75;25.00;;;;;26.43;62.32;100671.63;5078120;27;45347;-81
2023/08/18 09:14:39;;;;;;;;;34.50;28.25;;;;;26.49;62.21;100671.88;5105571;27;46537;-80
2023/08/18 09:17:05;;;;;;;;;25.50;18.75;;;;;26.55;62.10;100666.91;5083581;27;46053;-77
2023/08/18 09:19:31;;;;;;;;;28.00;22.75;;;;;26.64;62.01;100663.38;5103011;27;45195;-76
2023/08/18 09:22:00;;;;;;;;;29.50;23.75;;;;;26.74;61.96;100666.88;5100728;27;44964;-73
2023/08/18 09:24:26;;;;;;;;;29.75;22.75;;;;;26.85;61.62;100674.72;5116737;27;45462;-77
2023/08/18 09:26:52;;;;;;;;;24.00;19.25;;;;;26.95;61.48;100661.25;5103291;27;44991;-76
2023/08/18 09:29:18;;;;;;;;;24.25;19.50;;;;;27.06;60.95;100665.56;5097132;27;44758;-77
2023/08/18 09:31:46;;;;;;;;;23.00;17.75;;;;;27.15;61.14;100666.50;5090795;27;45389;-71
2023/08/18 09:34:20;;;;;;;;;22.50;20.25;;;;;27.23;61.25;100666.59;5093483;27;46322;-72
2023/08/18 09:36:53;;;;;;;;;24.25;21.50;;;;;27.32;60.96;100668.41;5091507;27;45811;-73
2023/08/18 09:39:18;;;;;;;;;22.75;19.50;;;;;27.41;60.07;100663.94;5096018;27;46593;-74
2023/08/18 09:41:48;;;;;;;;;22.00;17.25;;;;;27.53;60.03;100660.03;5092191;27;45337;-70
2023/08/18 09:44:13;;;;;;;;;19.75;17.00;;;;;27.70;60.08;100666.41;5090855;27;45488;-74
2023/08/18 09:46:39;;;;;;;;;21.75;16.50;;;;;27.85;59.23;100658.63;5066640;27;46276;-75
2023/08/18 09:49:06;;;;;;;;;15.50;14.50;;;;;28.05;58.77;100658.47;5066387;28;45489;-72
2023/08/18 09:51:32;;;;;;;;;23.25;20.25;;;;;28.19;58.67;100653.34;5089157;27;58051;-71
2023/08/18 09:54:01;;;;;;;;;22.50;16.50;;;;;28.32;58.59;100652.09;5092342;27;76032;-71
2023/08/18 09:56:32;;;;;;;;;18.00;16.75;;;;;28.41;58.10;100653.81;5083823;27;45279;-71
2023/08/18 09:59:17;;;;;;;;;26.50;24.75;;;;;28.49;57.80;100645.78;5081090;27;45426;-76
2023/08/18 10:01:44;;;;;;;;;22.50;20.00;;;;;28.53;57.52;100641.78;5089708;27;45468;-73
2023/08/18 10:04:10;;;;;;;;;18.50;15.25;;;;;28.51;57.11;100638.41;5107626;27;45425;-72
2023/08/18 10:06:39;;;;;;;;;21.75;17.25;;;;;28.49;57.43;100631.47;5081363;27;45694;-71
2023/08/18 10:09:05;;;;;;;;;18.50;16.25;;;;;28.50;57.00;100638.56;5067411;27;45513;-68
2023/08/18 10:11:30;;;;;;;;;17.75;16.00;;;;;28.49;56.88;100632.34;5083911;27;45428;-67
2023/08/18 10:13:56;;;;;;;;;16.50;12.75;;;;;28.47;56.99;100636.19;5091782;27;45524;-69
2023/08/18 10:16:22;;;;;;;;;18.00;14.50;;;;;28.45;56.96;100638.19;5089079;27;45327;-71
2023/08/18 10:18:55;;;;;;;;;19.00;17.00;;;;;28.46;57.05;100634.50;5089959;27;45476;-72
2023/08/18 10:21:22;;;;;;;;;29.50;25.00;;;;;28.50;57.03;100641.25;5086265;27;45453;-69
2023/08/18 10:23:47;;;;;;;;;24.25;21.25;;;;;28.52;56.89;100637.38;5094412;27;46612;-71
2023/08/18 10:26:14;;;;;;;;;32.00;27.00;;;;;28.58;56.77;100630.56;5088028;27;45404;-70
2023/08/18 10:28:40;;;;;;;;;29.25;22.00;;;;;28.64;56.67;100637.97;5093954;27;45580;-72
2023/08/18 10:31:11;;;;;;;;;16.25;14.75;;;;;28.69;56.70;100622.19;5088577;27;45481;-73
2023/08/18 10:33:46;;;;;;;;;25.50;21.75;;;;;28.75;56.67;100624.19;5078230;27;47475;-73
2023/08/18 10:36:24;;;;;;;;;25.25;19.50;;;;;28.79;56.45;100624.72;5090038;27;45252;-73
2023/08/18 10:38:52;;;;;;;;;20.00;19.00;;;;;28.83;56.52;100622.53;5072360;27;45632;-73
2023/08/18 10:41:24;;;;;;;;;23.25;19.50;;;;;28.86;56.28;100620.41;5069916;28;45351;-74
2023/08/18 10:43:55;;;;;;;;;21.50;16.50;;;;;28.88;55.98;100615.69;5104776;27;45414;-70
2023/08/18 10:46:25;;;;;;;;;18.75;15.00;;;;;28.89;56.20;100627.28;5087793;27;45935;-70
2023/08/18 10:48:50;;;;;;;;;12.75;12.50;;;;;28.91;55.65;100622.59;5079432;27;45477;-69
2023/08/18 10:51:16;;;;;;;;;20.25;17.50;;;;;28.93;56.44;100624.13;5085832;27;67617;-71
2023/08/18 10:53:41;;;;;;;;;20.25;19.00;;;;;28.98;56.09;100620.91;5095758;27;47015;-71
2023/08/18 10:56:06;;;;;;;;;18.50;16.75;;;;;29.02;56.27;100621.44;5091307;27;57614;-70
2023/08/18 10:58:34;;;;;;;;;14.50;14.50;;;;;29.07;55.91;100619.09;5083171;27;67344;-73
2023/08/18 11:00:59;;;;;;;;;17.25;15.00;;;;;29.13;56.01;100618.44;5084139;27;45803;-75
2023/08/18 11:03:25;;;;;;;;;16.75;16.00;;;;;29.19;55.87;100620.50;5091203;27;47187;-80
2023/08/18 11:05:51;;;;;;;;;19.00;17.50;;;;;29.26;55.73;100621.50;5082150;27;45627;-78